Current Weather

Southampton

Southampton, United Kingdom (EGHI)

Report from: Sunday, September 25, 2022 8:50 PM BST
Current time: Monday, September 26, 2022 4:40 AM BST

Nearby weather
Weather history
Weather forecast

Temperature13.0°C (55.4°F)
Dew point7.0°C (44.6°F)
Winds 6 kts (3.1 m/s, 6.9 mph) West-Southwest (240°)
Visibility6.2 mi. (10 km)
Clouds Few clouds 4,500 ft. (1,372 m)
Altimeter29.97 in.Hg (1015 mB)
Relative humidity67 %
Density altitude-152 ft. (-46 m)
Flight conditions Visual Meteorological Conditions
Raw dataEGHI 251950Z 24006KT 9999 FEW045 13/07 Q1015
An error has occurred. This application may no longer respond until reloaded. Reload 🗙